Time;durP1;ratioP1;P1;durP2;ratioP2;P2;SDS_P1;SDS_P2;PMS_P1;PMS_P2;Temp;Humidity;BMP_temperature;BMP_pressure;BME280_temperature;BME280_humidity;BME280_pressure;Samples;Min_cycle;Max_cycle;Signal;HPM_P1;HPM_P2
2022/09/20 00:01:10;;;;;;;19.03;8.77;;;;;;;37.89;38.52;101100.91;5071296;28;20421;-75
2022/09/20 00:03:39;;;;;;;17.10;8.37;;;;;;;38.17;37.89;101085.44;5054565;28;20409;-75
2022/09/20 00:06:07;;;;;;;34.53;10.13;;;;;;;38.35;37.80;101092.66;5071282;28;20430;-74
2022/09/20 00:08:34;;;;;;;20.37;10.40;;;;;;;38.24;38.37;101093.94;5072644;28;20441;-75
2022/09/20 00:11:05;;;;;;;28.87;12.20;;;;;;;38.31;38.50;101088.97;5071204;28;20410;-75
2022/09/20 00:13:32;;;;;;;35.13;10.00;;;;;;;37.96;39.09;101086.97;5071079;28;20922;-74
2022/09/20 00:15:59;;;;;;;19.20;9.90;;;;;;;37.75;39.12;101084.63;5071147;28;20416;-75
2022/09/20 00:18:26;;;;;;;21.87;9.77;;;;;;;38.22;38.08;101084.53;5071108;28;20915;-75
2022/09/20 00:20:52;;;;;;;24.30;9.30;;;;;;;37.83;38.60;101078.53;5076418;28;20468;-75
2022/09/20 00:23:18;;;;;;;20.60;10.17;;;;;;;38.08;38.33;101073.72;5075105;28;20413;-75
2022/09/20 00:25:45;;;;;;;21.20;10.53;;;;;;;38.05;38.75;101064.28;5074981;28;20406;-74
2022/09/20 00:28:11;;;;;;;23.33;12.13;;;;;;;37.87;39.04;101065.97;5074917;28;20457;-77
2022/09/20 00:30:38;;;;;;;26.53;12.33;;;;;;;38.25;38.37;101056.84;5074926;28;20448;-77
2022/09/20 00:33:04;;;;;;;38.10;12.67;;;;;;;38.66;37.88;101056.75;5074820;28;20868;-75
2022/09/20 00:35:31;;;;;;;19.33;11.07;;;;;;;38.23;38.36;101059.84;5075475;28;20398;-75
2022/09/20 00:37:57;;;;;;;24.17;11.23;;;;;;;38.28;38.06;101053.53;5074756;28;20496;-74
2022/09/20 00:40:25;;;;;;;32.90;14.00;;;;;;;38.31;38.25;101042.13;5076222;28;20434;-75
2022/09/20 00:42:51;;;;;;;25.40;10.97;;;;;;;38.09;38.67;101040.09;5058434;28;20423;-75
2022/09/20 00:45:27;;;;;;;17.60;10.90;;;;;;;38.03;38.54;101036.69;5074600;28;20417;-75
2022/09/20 00:48:30;;;;;;;17.90;10.13;;;;;;;38.06;38.34;101022.56;5074580;28;20461;-75
2022/09/20 00:51:07;;;;;;;23.23;12.50;;;;;;;37.80;38.98;101024.97;4997785;28;20492;-75
2022/09/20 00:53:44;;;;;;;23.73;12.37;;;;;;;37.86;38.57;101029.19;5068292;28;20421;-75
2022/09/20 00:56:18;;;;;;;21.50;10.73;;;;;;;38.04;38.63;101019.34;5074505;28;20421;-75
2022/09/20 00:58:53;;;;;;;30.53;12.53;;;;;;;38.15;38.77;101020.72;5074304;28;20475;-75
2022/09/20 01:01:20;;;;;;;25.70;13.60;;;;;;;38.46;38.11;101019.28;5074331;28;20496;-75
2022/09/20 01:03:47;;;;;;;28.63;10.93;;;;;;;38.68;37.58;101022.81;5076028;28;20437;-75
2022/09/20 01:06:15;;;;;;;22.27;9.33;;;;;;;38.23;38.08;101012.97;5075839;28;20449;-75
2022/09/20 01:08:47;;;;;;;26.63;11.73;;;;;;;38.42;38.07;101009.03;5074073;28;20487;-75
2022/09/20 01:11:14;;;;;;;39.77;12.50;;;;;;;38.31;38.53;101004.19;5074212;28;20417;-75
2022/09/20 01:13:40;;;;;;;17.77;9.40;;;;;;;38.02;39.08;101008.00;5074104;28;20417;-76
2022/09/20 01:16:08;;;;;;;23.47;10.30;;;;;;;38.19;38.94;101004.69;5074966;28;20567;-77
2022/09/20 01:18:36;;;;;;;26.13;11.90;;;;;;;38.87;37.50;101000.97;5074095;28;20406;-76
2022/09/20 01:21:04;;;;;;;23.63;11.10;;;;;;;38.91;37.32;100998.41;5073907;28;20420;-75
2022/09/20 01:23:36;;;;;;;36.10;12.33;;;;;;;38.85;37.69;101005.09;5073985;28;20489;-75
2022/09/20 01:26:20;;;;;;;31.07;13.80;;;;;;;39.05;37.56;100993.75;5074066;28;20422;-75
2022/09/20 01:28:50;;;;;;;21.67;11.33;;;;;;;38.86;37.69;100990.44;5073819;28;20528;-75
2022/09/20 01:31:23;;;;;;;26.27;12.63;;;;;;;38.69;37.66;101001.94;5073342;28;20406;-74
2022/09/20 01:33:49;;;;;;;21.70;10.90;;;;;;;38.52;37.95;100994.47;5073741;28;20449;-77
2022/09/20 01:36:23;;;;;;;27.10;10.60;;;;;;;38.99;36.99;100989.56;5073664;28;20441;-76
2022/09/20 01:39:07;;;;;;;18.10;12.30;;;;;;;38.88;37.27;100999.84;5073740;28;20437;-76
2022/09/20 01:41:54;;;;;;;14.73;10.13;;;;;;;38.87;36.97;100992.84;5073550;28;20421;-77
2022/09/20 01:44:33;;;;;;;19.30;10.33;;;;;;;38.92;37.05;100995.44;5073456;28;20874;-77
2022/09/20 01:47:05;;;;;;;28.80;11.47;;;;;;;38.74;37.42;100996.41;5075011;28;20440;-77
2022/09/20 01:50:02;;;;;;;25.13;12.67;;;;;;;38.50;37.71;100985.06;5075358;28;20394;-76
2022/09/20 01:52:40;;;;;;;23.93;10.93;;;;;;;39.05;36.78;100987.50;5074996;28;20429;-75
2022/09/20 01:55:11;;;;;;;24.83;13.37;;;;;;;38.78;37.42;100991.16;5056754;28;20777;-75
2022/09/20 01:57:43;;;;;;;27.43;12.27;;;;;;;38.72;37.43;100986.97;5080750;28;20548;-75
2022/09/20 02:00:25;;;;;;;33.43;11.80;;;;;;;38.74;37.33;100980.16;5076581;28;20812;-74
2022/09/20 02:03:03;;;;;;;26.13;11.37;;;;;;;38.49;38.23;100984.25;5076772;28;20940;-75
2022/09/20 02:05:42;;;;;;;27.23;12.87;;;;;;;39.15;37.23;100981.81;5076482;28;20976;-75
2022/09/20 02:08:31;;;;;;;36.93;13.40;;;;;;;38.84;37.41;100976.38;5094886;28;21076;-75
2022/09/20 02:11:06;;;;;;;21.73;11.53;;;;;;;38.91;37.19;100976.72;5076479;28;20412;-75
2022/09/20 02:13:57;;;;;;;30.23;12.30;;;;;;;38.51;38.27;100967.66;5076896;28;20404;-75
2022/09/20 02:16:54;;;;;;;25.50;11.80;;;;;;;38.86;37.59;100977.69;5087532;28;20429;-75
2022/09/20 02:19:40;;;;;;;32.20;12.90;;;;;;;38.60;38.02;100968.53;5076267;28;20474;-75
2022/09/20 02:22:20;;;;;;;17.03;9.83;;;;;;;38.87;37.47;100971.13;5059490;28;20441;-75
2022/09/20 02:24:59;;;;;;;20.13;11.63;;;;;;;39.03;37.24;100976.16;5060327;28;20420;-75
2022/09/20 02:28:09;;;;;;;29.50;13.17;;;;;;;39.41;36.61;100968.38;5075974;28;20509;-76
2022/09/20 02:30:54;;;;;;;36.97;17.30;;;;;;;39.48;36.86;100966.03;5015478;28;20523;-76
2022/09/20 02:33:29;;;;;;;32.47;16.23;;;;;;;39.53;36.92;100973.19;5088963;28;20910;-77
2022/09/20 02:36:15;;;;;;;25.13;13.80;;;;;;;38.83;37.95;100972.06;5076482;28;20393;-76
2022/09/20 02:38:51;;;;;;;37.57;13.73;;;;;;;38.83;38.03;100972.84;5075894;28;20417;-77
2022/09/20 02:41:32;;;;;;;25.83;12.37;;;;;;;39.03;37.67;100985.09;5076479;28;20542;-77
2022/09/20 02:44:25;;;;;;;21.30;13.33;;;;;;;38.71;37.82;100978.00;5094410;28;20404;-76
2022/09/20 02:47:10;;;;;;;27.13;12.90;;;;;;;39.01;37.67;100979.19;5075878;28;20758;-77
2022/09/20 02:49:38;;;;;;;23.30;13.00;;;;;;;39.31;37.65;100976.81;5075636;28;20520;-76
2022/09/20 02:52:05;;;;;;;31.20;12.80;;;;;;;39.78;36.85;100977.97;5075606;28;20425;-75
2022/09/20 02:54:47;;;;;;;25.60;12.40;;;;;;;39.99;35.93;100972.72;5075404;28;20508;-74
2022/09/20 02:57:38;;;;;;;26.57;11.50;;;;;;;39.92;36.50;100972.38;5075591;28;20420;-75
2022/09/20 03:00:12;;;;;;;25.03;13.20;;;;;;;40.05;36.10;100976.91;5075426;28;20465;-75
2022/09/20 03:03:06;;;;;;;28.43;13.90;;;;;;;39.34;37.46;100978.88;5059631;28;20814;-74
2022/09/20 03:05:50;;;;;;;22.60;13.10;;;;;;;39.41;36.69;100980.06;5058732;28;20524;-75
2022/09/20 03:08:46;;;;;;;36.00;15.13;;;;;;;39.43;36.69;100975.09;5093744;28;20777;-75
2022/09/20 03:11:31;;;;;;;27.33;13.73;;;;;;;39.71;36.44;100972.97;5093834;28;20502;-77
2022/09/20 03:14:23;;;;;;;30.20;11.37;;;;;;;39.53;36.66;100975.91;5074967;28;20413;-76
2022/09/20 03:17:09;;;;;;;44.40;13.67;;;;;;;39.21;36.98;100980.59;5077675;28;20430;-76
2022/09/20 03:19:45;;;;;;;28.67;14.40;;;;;;;39.44;36.63;100967.75;5058470;28;20420;-76
2022/09/20 03:22:11;;;;;;;24.43;14.30;;;;;;;39.42;36.55;100978.94;5075083;28;20482;-75
2022/09/20 03:25:31;;;;;;;21.80;11.23;;;;;;;39.31;36.77;100974.09;5075069;28;20451;-75
2022/09/20 03:28:16;;;;;;;32.17;14.30;;;;;;;38.84;37.45;100979.88;5030887;28;20513;-75
2022/09/20 03:31:00;;;;;;;23.50;14.07;;;;;;;38.66;37.82;100975.41;5091905;28;20555;-75
2022/09/20 03:33:36;;;;;;;29.77;15.10;;;;;;;39.00;37.40;100974.09;5074877;28;20478;-75
2022/09/20 03:36:21;;;;;;;32.73;12.73;;;;;;;38.90;37.89;100978.63;5074714;28;20415;-75
2022/09/20 03:39:12;;;;;;;36.03;13.07;;;;;;;39.38;36.92;100974.44;5093270;28;20385;-76
2022/09/20 03:42:05;;;;;;;16.80;10.93;;;;;;;39.04;37.41;100978.59;5075096;28;20397;-77
2022/09/20 03:44:52;;;;;;;37.47;12.77;;;;;;;38.87;37.50;100982.00;5074664;28;20489;-77
2022/09/20 03:47:42;;;;;;;35.53;14.70;;;;;;;38.62;38.23;100991.53;5074570;28;20466;-76
2022/09/20 03:50:20;;;;;;;27.07;14.70;;;;;;;39.03;37.68;100989.72;5074713;28;20412;-76
2022/09/20 03:53:04;;;;;;;26.03;12.40;;;;;;;39.36;37.21;100984.81;5074668;28;20417;-77
2022/09/20 03:55:43;;;;;;;32.20;14.87;;;;;;;39.09;37.35;100985.75;5093090;28;20420;-76
2022/09/20 03:58:18;;;;;;;34.60;15.70;;;;;;;39.19;37.58;100986.34;5071218;28;20504;-77
2022/09/20 04:01:13;;;;;;;28.33;14.37;;;;;;;39.35;37.21;100983.19;5072308;28;20514;-75
2022/09/20 04:03:54;;;;;;;36.23;14.87;;;;;;;39.56;36.81;100986.97;5072789;28;20394;-74
2022/09/20 04:06:39;;;;;;;27.13;13.47;;;;;;;39.69;36.36;100985.28;5038867;28;20464;-75
2022/09/20 04:09:23;;;;;;;24.77;14.53;;;;;;;39.96;36.44;100990.47;5054341;28;20457;-75
2022/09/20 04:12:11;;;;;;;41.77;16.27;;;;;;;39.90;35.97;100991.72;5054357;28;20418;-75
2022/09/20 04:14:48;;;;;;;24.50;12.17;;;;;;;39.87;36.46;100986.91;5038000;28;20504;-75
2022/09/20 04:17:25;;;;;;;29.00;12.60;;;;;;;40.13;35.70;100994.31;5038612;28;20441;-75
2022/09/20 04:20:04;;;;;;;33.50;12.70;;;;;;;39.99;35.74;100997.16;5057709;28;20443;-75
2022/09/20 04:22:31;;;;;;;27.80;12.80;;;;;;;39.95;35.90;101009.75;5092418;28;20546;-75
2022/09/20 04:25:17;;;;;;;27.00;13.47;;;;;;;39.95;36.02;101004.34;5092791;28;20385;-75
2022/09/20 04:27:59;;;;;;;23.13;12.90;;;;;;;40.25;35.78;101011.59;5075039;28;20484;-75
2022/09/20 04:30:28;;;;;;;26.80;12.23;;;;;;;40.14;35.49;101004.88;5074336;28;20922;-77
2022/09/20 04:33:17;;;;;;;29.13;12.23;;;;;;;40.18;35.22;101003.13;5074297;28;20425;-77
2022/09/20 04:36:32;;;;;;;19.77;11.50;;;;;;;40.27;35.50;101009.38;5057545;28;20444;-75
2022/09/20 04:39:02;;;;;;;28.53;11.27;;;;;;;40.10;34.94;100993.06;5090385;28;20432;-75
2022/09/20 04:41:55;;;;;;;29.20;14.37;;;;;;;39.65;36.21;101008.72;5074003;28;20417;-75
2022/09/20 04:44:34;;;;;;;19.33;10.77;;;;;;;40.20;35.67;101008.22;5074042;28;20473;-75
2022/09/20 04:47:04;;;;;;;25.50;12.63;;;;;;;39.85;36.28;101016.31;5074116;28;20806;-74
2022/09/20 04:49:49;;;;;;;20.37;11.90;;;;;;;39.92;36.02;101015.84;5074110;28;20432;-77
2022/09/20 04:52:45;;;;;;;19.03;11.30;;;;;;;39.74;36.29;101029.38;5073979;28;20451;-77
2022/09/20 04:55:36;;;;;;;28.80;14.97;;;;;;;39.90;35.88;101029.75;5074237;28;20405;-78
2022/09/20 04:58:41;;;;;;;33.60;11.70;;;;;;;39.96;35.72;101035.81;5073999;28;20466;-76
2022/09/20 05:01:18;;;;;;;35.97;14.37;;;;;;;40.15;35.45;101036.38;5053840;28;20452;-77
2022/09/20 05:04:04;;;;;;;30.47;13.67;;;;;;;39.87;36.10;101032.28;5072061;28;20428;-77
2022/09/20 05:07:08;;;;;;;29.20;12.40;;;;;;;40.00;35.73;101034.88;5057000;28;20434;-77
2022/09/20 05:09:52;;;;;;;24.43;12.27;;;;;;;39.70;36.17;101038.47;5057483;28;20482;-75
2022/09/20 05:12:21;;;;;;;25.27;12.23;;;;;;;39.41;36.73;101047.09;5057323;28;20456;-75
2022/09/20 05:15:25;;;;;;;28.30;13.87;;;;;;;39.81;35.72;101047.13;5057313;28;20418;-75
2022/09/20 05:18:19;;;;;;;30.93;12.33;;;;;;;40.05;35.57;101052.19;5017115;28;20418;-74
2022/09/20 05:20:49;;;;;;;21.77;12.20;;;;;;;39.71;36.20;101049.00;5057224;28;20453;-75
2022/09/20 05:23:49;;;;;;;19.30;11.40;;;;;;;39.32;36.38;101055.19;5075505;28;20900;-75
2022/09/20 05:26:37;;;;;;;29.67;16.00;;;;;;;39.57;36.14;101061.06;5057094;28;20924;-75
2022/09/20 05:29:29;;;;;;;25.67;12.67;;;;;;;39.91;35.29;101058.50;5070392;28;20693;-74
2022/09/20 05:32:09;;;;;;;32.30;15.43;;;;;;;39.86;35.57;101061.38;5063352;28;20425;-75
2022/09/20 05:34:54;;;;;;;24.40;12.57;;;;;;;39.27;36.77;101073.53;5044396;28;20413;-75
2022/09/20 05:37:35;;;;;;;31.53;16.27;;;;;;;39.70;35.80;101074.56;5047444;28;20993;-74
2022/09/20 05:40:29;;;;;;;27.33;14.87;;;;;;;39.75;35.85;101066.28;5047297;28;20415;-76
2022/09/20 05:43:05;;;;;;;32.80;16.33;;;;;;;39.12;36.92;101074.69;5050864;28;20436;-75
2022/09/20 05:46:04;;;;;;;29.17;14.47;;;;;;;39.45;36.23;101075.22;5074322;28;20488;-78
2022/09/20 05:48:41;;;;;;;40.93;15.17;;;;;;;39.17;37.13;101077.31;5043868;28;20442;-77
2022/09/20 05:51:14;;;;;;;35.77;15.83;;;;;;;39.43;36.55;101080.16;5049135;28;20932;-77
2022/09/20 05:53:55;;;;;;;30.20;14.90;;;;;;;39.93;35.63;101074.50;5073715;28;20496;-74
2022/09/20 05:56:42;;;;;;;34.87;16.00;;;;;;;39.60;36.42;101077.56;5046685;28;20445;-81
2022/09/20 05:59:45;;;;;;;20.83;13.80;;;;;;;39.64;36.50;101083.16;5050026;28;20473;-79
2022/09/20 06:02:48;;;;;;;32.10;14.77;;;;;;;39.29;37.23;101084.84;5067642;28;20410;-79
2022/09/20 06:06:00;;;;;;;29.60;14.97;;;;;;;39.26;37.00;101089.00;5064762;28;20511;-83
2022/09/20 06:08:29;;;;;;;25.07;13.17;;;;;;;39.63;36.39;101082.38;5037412;28;20880;-78
2022/09/20 06:11:14;;;;;;;19.40;12.37;;;;;;;39.97;36.17;101084.41;5064862;28;20402;-75
2022/09/20 06:13:58;;;;;;;32.87;12.67;;;;;;;40.31;35.79;101092.97;5053485;28;20449;-78
2022/09/20 06:16:31;;;;;;;40.20;14.80;;;;;;;40.31;36.03;101091.06;5053110;28;20479;-76
2022/09/20 06:19:03;;;;;;;25.40;13.90;;;;;;;40.21;36.04;101100.34;5053693;28;20417;-77
2022/09/20 06:21:44;;;;;;;31.83;12.67;;;;;;;40.31;35.89;101095.69;5053920;28;20838;-74
2022/09/20 06:24:20;;;;;;;27.87;13.47;;;;;;;40.23;35.61;101102.72;5072883;28;20394;-78
2022/09/20 06:26:52;;;;;;;30.13;13.87;;;;;;;40.29;35.98;101102.25;5056127;28;20406;-79
2022/09/20 06:29:33;;;;;;;29.27;12.93;;;;;;;40.38;35.68;101106.91;5040679;28;20454;-79
2022/09/20 06:32:00;;;;;;;21.60;13.17;;;;;;;40.25;36.34;101112.16;5034324;28;20457;-78
2022/09/20 06:34:27;;;;;;;40.57;17.90;;;;;;;40.53;35.61;101110.00;5048507;28;20524;-80
2022/09/20 06:41:26;;;;;;;32.00;14.07;;;;;;;40.54;35.29;101114.31;5069051;28;20398;-74
2022/09/20 06:43:20;;;;;;;34.10;13.70;;;;;;;40.54;35.88;101117.03;5052088;28;20409;-75
2022/09/20 06:45:47;;;;;;;30.33;13.23;;;;;;;40.34;36.12;101117.63;5070149;28;20405;-77
2022/09/20 06:48:14;;;;;;;20.77;10.93;;;;;;;40.27;35.11;101117.31;5053279;28;20449;-73
2022/09/20 06:50:44;;;;;;;17.63;10.33;;;;;;;39.92;36.00;101129.94;5054059;28;20795;-74
2022/09/20 06:53:21;;;;;;;26.40;12.43;;;;;;;39.57;36.63;101132.44;5054694;28;20472;-74
2022/09/20 06:55:47;;;;;;;27.50;12.17;;;;;;;40.03;35.86;101133.97;5054492;28;20416;-75
2022/09/20 06:58:13;;;;;;;24.83;12.20;;;;;;;40.25;35.55;101130.38;5054828;28;20948;-76
2022/09/20 07:00:39;;;;;;;29.30;12.50;;;;;;;39.94;35.73;101127.69;5076485;28;20458;-76
2022/09/20 07:03:06;;;;;;;32.70;14.80;;;;;;;39.40;36.37;101130.44;5057753;28;20476;-77
2022/09/20 07:05:32;;;;;;;24.00;10.80;;;;;;;39.38;36.51;101131.84;5053867;28;20496;-77
2022/09/20 07:07:59;;;;;;;16.87;9.77;;;;;;;39.96;35.89;101136.31;5055186;28;20457;-78
2022/09/20 07:10:29;;;;;;;30.57;13.80;;;;;;;39.86;35.81;101142.06;5038039;28;20896;-77
2022/09/20 07:12:59;;;;;;;18.63;10.10;;;;;;;39.32;36.85;101152.09;5038531;28;20853;-76
2022/09/20 07:15:31;;;;;;;27.50;11.70;;;;;;;39.53;36.66;101147.75;5039455;28;20414;-77
2022/09/20 07:17:58;;;;;;;27.47;13.07;;;;;;;39.71;36.88;101152.19;5066886;28;20413;-75
2022/09/20 07:20:25;;;;;;;25.90;13.03;;;;;;;40.13;36.17;101157.34;5072751;28;20504;-78
2022/09/20 07:22:52;;;;;;;28.03;13.27;;;;;;;39.91;36.51;101169.09;5073020;28;20405;-76
2022/09/20 07:25:19;;;;;;;26.63;11.30;;;;;;;39.86;36.79;101164.59;5073045;28;20440;-77
2022/09/20 07:27:49;;;;;;;27.03;12.50;;;;;;;39.88;36.07;101166.97;5072563;28;20515;-78
2022/09/20 07:30:16;;;;;;;22.33;12.47;;;;;;;40.52;35.40;101168.22;5072921;28;20405;-79
2022/09/20 07:32:42;;;;;;;26.00;12.50;;;;;;;40.64;35.09;101172.22;5074417;28;20408;-77
2022/09/20 07:35:12;;;;;;;25.20;11.73;;;;;;;40.44;35.13;101174.41;5074155;28;20789;-76
2022/09/20 07:37:41;;;;;;;28.50;12.93;;;;;;;40.14;35.65;101183.41;5072819;28;20523;-77
2022/09/20 07:40:09;;;;;;;23.10;11.93;;;;;;;40.52;35.30;101187.25;5091283;28;20455;-78
2022/09/20 07:42:36;;;;;;;29.97;12.73;;;;;;;40.50;35.30;101185.97;5091151;28;20389;-78
2022/09/20 07:45:02;;;;;;;33.43;13.13;;;;;;;40.15;36.11;101193.19;5072914;28;20500;-77
2022/09/20 07:47:34;;;;;;;24.77;12.20;;;;;;;40.10;36.24;101194.13;5091330;28;20393;-74
2022/09/20 07:50:00;;;;;;;28.73;13.77;;;;;;;40.17;35.91;101201.81;5072973;28;20413;-76
2022/09/20 07:52:26;;;;;;;21.77;13.97;;;;;;;39.87;35.93;101208.84;5092957;28;20409;-74
2022/09/20 07:54:53;;;;;;;34.90;12.57;;;;;;;40.21;34.94;101213.69;5074621;28;20413;-73
2022/09/20 08:10:35;;;;;;;35.90;14.60;;;;;;;37.30;43.49;101216.06;5172976;27;20287;-76
2022/09/20 08:13:01;;;;;;;22.47;12.70;;;;;;;39.02;39.15;101224.13;5133002;27;20467;-76
2022/09/20 08:15:28;;;;;;;25.40;12.83;;;;;;;39.77;37.47;101231.63;5133158;27;20438;-76
2022/09/20 08:17:54;;;;;;;24.50;11.07;;;;;;;40.07;36.76;101235.50;5133088;27;20915;-72
2022/09/20 08:20:20;;;;;;;35.53;12.10;;;;;;;40.31;36.60;101235.13;5132941;27;20460;-73
2022/09/20 08:22:46;;;;;;;28.40;16.47;;;;;;;39.95;36.64;101227.88;5132988;27;20434;-73
2022/09/20 08:25:12;;;;;;;36.43;13.07;;;;;;;40.11;36.22;101231.06;5151726;27;20768;-73
2022/09/20 08:27:38;;;;;;;26.53;16.20;;;;;;;40.24;35.67;101232.06;5132912;27;20494;-74
2022/09/20 08:30:05;;;;;;;27.13;12.90;;;;;;;40.54;35.57;101242.13;5132816;27;20537;-75
2022/09/20 08:32:31;;;;;;;29.47;13.00;;;;;;;40.81;35.23;101245.69;5132726;27;20440;-75
2022/09/20 08:34:58;;;;;;;27.30;13.60;;;;;;;41.16;34.78;101243.06;5132730;27;20415;-75
2022/09/20 08:41:01;;;;;;;26.50;11.53;;;;;;;40.08;37.87;101237.09;5172957;27;20810;-74
2022/09/20 08:43:37;;;;;;;24.13;11.20;;;;;;;41.10;35.58;101247.84;5133093;27;20406;-73
2022/09/20 08:46:06;;;;;;;18.83;11.00;;;;;;;41.23;35.32;101248.81;5133170;27;20406;-73
2022/09/20 08:48:33;;;;;;;33.13;12.70;;;;;;;41.22;34.74;101258.91;5132980;27;20406;-73
2022/09/20 08:51:01;;;;;;;23.43;14.43;;;;;;;40.97;35.50;101257.75;5133044;27;20417;-73
2022/09/20 08:53:29;;;;;;;32.07;12.90;;;;;;;41.31;34.94;101257.00;5132990;27;20498;-73
2022/09/20 08:55:58;;;;;;;30.13;12.40;;;;;;;41.32;34.70;101261.34;5132807;27;20493;-72
2022/09/20 08:58:26;;;;;;;15.07;10.90;;;;;;;41.58;34.56;101266.78;5132836;27;20862;-73
2022/09/20 09:00:55;;;;;;;28.30;11.70;;;;;;;41.38;34.53;101277.53;5132814;27;20415;-73
2022/09/20 09:03:21;;;;;;;21.50;10.93;;;;;;;41.64;33.79;101269.34;5132811;27;20482;-73
2022/09/20 09:06:00;;;;;;;17.80;11.27;;;;;;;41.70;33.98;101276.22;5121350;28;20514;-72
2022/09/20 09:08:34;;;;;;;25.40;11.57;;;;;;;41.88;33.70;101279.75;5130858;28;20419;-73
2022/09/20 09:11:15;;;;;;;16.40;10.37;;;;;;;41.85;33.55;101276.53;5112342;28;21017;-72
2022/09/20 09:14:03;;;;;;;23.33;11.50;;;;;;;41.96;33.30;101281.63;5112005;28;20796;-73
2022/09/20 09:16:32;;;;;;;23.70;11.00;;;;;;;42.00;33.32;101282.59;5111923;28;20446;-73
2022/09/20 09:19:26;;;;;;;16.30;9.57;;;;;;;41.82;33.14;101274.47;5111677;28;20519;-72
2022/09/20 09:21:57;;;;;;;16.83;10.47;;;;;;;41.68;33.50;101279.25;5130216;28;21011;-73
2022/09/20 09:24:24;;;;;;;15.57;10.50;;;;;;;41.90;33.14;101272.03;5111718;28;20423;-73
2022/09/20 09:27:05;;;;;;;25.73;12.90;;;;;;;41.30;33.82;101268.97;5111804;28;20454;-73
2022/09/20 09:29:31;;;;;;;25.63;13.33;;;;;;;41.93;33.24;101272.19;5111857;28;20419;-74
2022/09/20 09:32:23;;;;;;;23.37;11.20;;;;;;;41.78;33.99;101275.41;5111348;28;20443;-74
2022/09/20 09:34:50;;;;;;;22.50;12.80;;;;;;;42.00;33.70;101288.84;5111667;28;20426;-74
2022/09/20 09:37:29;;;;;;;20.00;10.77;;;;;;;41.88;33.47;101290.63;5111635;28;20415;-75
2022/09/20 09:40:16;;;;;;;18.77;10.50;;;;;;;42.06;33.75;101289.47;5130005;28;20490;-74
2022/09/20 09:42:55;;;;;;;20.90;11.07;;;;;;;42.05;33.52;101290.56;5111393;28;20879;-72
2022/09/20 09:45:31;;;;;;;20.27;10.37;;;;;;;42.09;33.18;101286.09;5111498;28;20427;-72
2022/09/20 09:47:59;;;;;;;17.93;12.50;;;;;;;42.00;33.73;101285.31;5094619;28;20921;-72
2022/09/20 09:50:33;;;;;;;23.53;11.13;;;;;;;41.95;33.68;101283.56;5126697;28;20468;-72
2022/09/20 09:53:11;;;;;;;16.13;8.90;;;;;;;42.19;33.26;101280.31;5081236;28;20918;-72
2022/09/20 09:55:50;;;;;;;19.60;11.40;;;;;;;42.24;33.41;101265.72;5116256;28;20424;-71
2022/09/20 09:58:38;;;;;;;16.63;9.80;;;;;;;42.32;33.40;101268.38;5099575;28;20428;-73
2022/09/20 10:01:10;;;;;;;28.70;12.73;;;;;;;41.68;34.27;101271.09;5116166;28;20487;-73
2022/09/20 10:04:12;;;;;;;20.10;12.13;;;;;;;41.76;34.12;101274.94;5097576;28;20503;-74
2022/09/20 10:06:58;;;;;;;26.93;11.43;;;;;;;42.16;33.87;101283.69;5094576;28;20435;-78
2022/09/20 10:09:53;;;;;;;17.47;10.10;;;;;;;42.21;33.52;101286.22;5097472;28;20439;-75
2022/09/20 10:12:22;;;;;;;33.20;11.83;;;;;;;42.30;33.67;101280.75;5116113;28;20392;-75
2022/09/20 10:14:54;;;;;;;25.87;11.97;;;;;;;42.25;33.54;101278.22;5097584;28;20475;-75
2022/09/20 10:17:30;;;;;;;26.93;13.13;;;;;;;42.05;33.90;101298.75;5097600;28;20424;-75
2022/09/20 10:20:07;;;;;;;26.93;14.00;;;;;;;42.25;33.79;101291.84;5115718;28;20496;-75
2022/09/20 10:22:51;;;;;;;17.00;9.37;;;;;;;42.53;33.14;101284.00;5097177;28;20846;-75
2022/09/20 10:25:38;;;;;;;20.00;12.13;;;;;;;42.58;33.01;101284.66;5097298;28;20939;-75
2022/09/20 10:28:19;;;;;;;18.93;12.50;;;;;;;42.45;33.16;101274.75;5096409;28;20527;-75
2022/09/20 10:30:57;;;;;;;17.90;10.07;;;;;;;42.33;33.06;101278.16;5078473;28;20448;-74
2022/09/20 10:33:27;;;;;;;18.67;11.77;;;;;;;41.61;34.63;101278.94;5076670;28;20499;-74
2022/09/20 10:35:59;;;;;;;20.27;11.97;;;;;;;40.78;35.38;101282.50;5076661;28;20413;-74
2022/09/20 10:39:00;;;;;;;17.63;9.00;;;;;;;39.88;34.20;101276.44;5076558;28;20412;-74
2022/09/20 10:44:52;;;;;;;12.70;7.43;;;;;;;40.64;34.72;101270.94;5094614;28;20392;-75
2022/09/20 10:47:23;;;;;;;14.17;9.10;;;;;;;40.86;34.79;101267.31;5076399;28;20937;-74
2022/09/20 10:50:08;;;;;;;23.83;11.30;;;;;;;41.02;34.19;101264.97;5076367;28;20409;-73
2022/09/20 10:53:18;;;;;;;15.73;9.03;;;;;;;40.25;35.08;101258.91;5076324;28;20428;-73
2022/09/20 10:55:49;;;;;;;16.23;9.30;;;;;;;40.21;35.30;101254.44;5076139;28;20420;-73
2022/09/20 10:58:33;;;;;;;36.23;11.53;;;;;;;40.54;35.23;101250.28;5094857;28;20405;-73
2022/09/20 11:01:17;;;;;;;19.00;12.37;;;;;;;40.79;35.63;101256.91;5076219;28;20470;-73
2022/09/20 11:04:10;;;;;;;22.73;10.40;;;;;;;41.37;35.08;101246.75;5075051;28;20935;-73
2022/09/20 11:06:42;;;;;;;17.50;11.00;;;;;;;41.97;34.27;101245.06;5076197;28;20970;-73
2022/09/20 11:09:14;;;;;;;19.20;11.07;;;;;;;42.11;34.42;101240.22;5075913;28;20976;-73
2022/09/20 11:11:46;;;;;;;21.13;12.20;;;;;;;42.09;33.70;101237.03;5094524;28;20393;-73
2022/09/20 11:14:22;;;;;;;21.83;8.80;;;;;;;42.02;33.56;101236.72;5075737;28;20918;-73
2022/09/20 11:17:00;;;;;;;32.10;11.60;;;;;;;41.36;34.43;101219.84;5094436;28;20389;-73
2022/09/20 11:20:13;;;;;;;26.23;13.30;;;;;;;41.90;33.77;101214.81;5075795;28;20835;-73
2022/09/20 11:22:49;;;;;;;22.40;11.07;;;;;;;41.76;33.95;101212.28;5015227;28;20430;-73
2022/09/20 11:26:07;;;;;;;21.87;12.73;;;;;;;41.97;33.82;101206.94;5031910;28;20403;-73
2022/09/20 11:28:40;;;;;;;24.03;10.10;;;;;;;42.11;33.68;101196.59;5036156;28;20429;-74
2022/09/20 11:31:27;;;;;;;19.50;11.17;;;;;;;41.92;34.07;101193.47;5075574;28;20445;-73
2022/09/20 11:34:10;;;;;;;17.40;11.40;;;;;;;42.19;33.80;101184.91;5092305;28;20507;-73
2022/09/20 11:36:56;;;;;;;22.40;12.00;;;;;;;42.06;33.95;101183.19;5093692;28;20429;-75
2022/09/20 11:39:30;;;;;;;19.23;9.60;;;;;;;42.33;33.50;101177.28;5071805;28;20622;-75
2022/09/20 11:41:59;;;;;;;27.93;11.20;;;;;;;42.42;33.62;101170.97;5071964;28;20414;-75
2022/09/20 11:44:25;;;;;;;19.60;11.10;;;;;;;42.39;33.43;101178.69;5071922;28;20502;-75
2022/09/20 11:47:10;;;;;;;22.30;11.33;;;;;;;42.37;33.47;101172.78;5071811;28;20417;-75
2022/09/20 11:50:13;;;;;;;16.63;8.93;;;;;;;42.48;33.33;101164.19;5071715;28;20409;-74
2022/09/20 11:53:03;;;;;;;23.57;11.80;;;;;;;42.23;33.62;101160.50;5071859;28;20973;-75
2022/09/20 11:55:40;;;;;;;21.23;11.27;;;;;;;42.18;33.60;101156.06;5072016;28;20460;-73
2022/09/20 11:58:15;;;;;;;14.17;10.50;;;;;;;41.89;34.24;101166.91;5072018;28;20421;-73
2022/09/20 12:00:45;;;;;;;23.30;11.37;;;;;;;42.15;33.93;101156.66;5073277;28;20456;-75
2022/09/20 12:03:37;;;;;;;27.30;13.13;;;;;;;41.59;34.83;101148.53;5071560;28;20410;-75
2022/09/20 12:06:08;;;;;;;25.70;13.07;;;;;;;42.37;33.50;101155.63;5071703;28;20528;-74
2022/09/20 12:08:40;;;;;;;18.43;8.73;;;;;;;42.21;33.54;101151.84;5071627;28;20503;-75
2022/09/20 12:11:13;;;;;;;22.20;11.10;;;;;;;42.49;33.26;101152.19;5073113;28;20402;-74
2022/09/20 12:13:51;;;;;;;26.20;12.30;;;;;;;41.93;33.84;101155.03;5071051;28;20912;-73
2022/09/20 12:16:37;;;;;;;28.17;12.13;;;;;;;42.11;33.52;101145.63;5072963;28;20394;-73
2022/09/20 12:19:08;;;;;;;20.77;11.27;;;;;;;42.15;32.85;101137.59;5071345;28;20542;-73
2022/09/20 12:21:59;;;;;;;18.80;11.50;;;;;;;41.95;32.97;101139.13;5088429;28;20536;-74